createdAt,value
2023-03-04T00:00:28.780Z,36.08
2023-03-04T00:03:31.486Z,33.02
2023-03-04T00:06:22.719Z,36.15
2023-03-04T00:09:17.592Z,34.45
2023-03-04T00:12:09.545Z,36.40
2023-03-04T00:15:00.458Z,34.80
2023-03-04T00:17:51.598Z,34.20
2023-03-04T00:20:42.804Z,33.03
2023-03-04T00:23:36.380Z,32.63
2023-03-04T00:26:27.773Z,31.93
2023-03-04T00:29:19.272Z,34.25
2023-03-04T00:32:11.011Z,33.05
2023-03-04T00:35:02.531Z,34.33
2023-03-04T00:37:54.116Z,33.67
2023-03-04T00:40:45.884Z,34.67
2023-03-04T00:43:37.379Z,34.90
2023-03-04T00:46:29.336Z,37.08
2023-03-04T00:49:21.462Z,36.70
2023-03-04T00:52:14.545Z,36.20
2023-03-04T00:55:06.305Z,33.63
2023-03-04T00:57:58.310Z,35.65
2023-03-04T01:00:49.707Z,32.98
2023-03-04T01:03:42.890Z,32.55
2023-03-04T01:06:34.888Z,32.90
2023-03-04T01:09:27.005Z,33.70
2023-03-04T01:12:17.951Z,35.73
2023-03-04T01:15:11.888Z,33.13
2023-03-04T01:18:03.827Z,34.67
2023-03-04T01:20:55.807Z,33.38
2023-03-04T01:23:47.608Z,34.30
2023-03-04T01:26:39.552Z,32.75
2023-03-04T01:29:30.914Z,34.13
2023-03-04T01:32:22.834Z,35.13
2023-03-04T01:35:14.310Z,37.55
2023-03-04T01:38:08.803Z,36.13
2023-03-04T01:41:00.531Z,32.58
2023-03-04T01:43:53.694Z,35.20
2023-03-04T01:46:48.474Z,33.30
2023-03-04T01:49:40.473Z,35.88
2023-03-04T01:52:32.088Z,36.05
2023-03-04T01:55:25.233Z,37.53
2023-03-04T01:58:17.024Z,38.20
2023-03-04T02:01:08.758Z,33.48
2023-03-04T02:04:00.166Z,37.73
2023-03-04T02:06:52.623Z,34.70
2023-03-04T02:09:44.072Z,34.03
2023-03-04T02:12:40.550Z,37.00
2023-03-04T02:15:32.459Z,36.17
2023-03-04T02:18:27.974Z,34.43
2023-03-04T02:24:17.882Z,36.68
2023-03-04T02:27:09.820Z,36.05
2023-03-04T02:30:04.120Z,35.58
2023-03-04T02:32:56.028Z,34.18
2023-03-04T02:35:53.974Z,36.00
2023-03-04T02:38:45.463Z,32.73
2023-03-04T02:41:40.939Z,35.13
2023-03-04T02:44:35.595Z,33.90
2023-03-04T02:47:26.988Z,33.73
2023-03-04T02:50:19.453Z,35.10
2023-03-04T02:56:01.733Z,34.23
2023-03-04T02:58:54.799Z,33.83
2023-03-04T03:01:47.190Z,35.65
2023-03-04T03:04:51.721Z,34.85
2023-03-04T03:07:36.328Z,34.25
2023-03-04T03:10:29.826Z,36.48
2023-03-04T03:13:21.538Z,35.35
2023-03-04T03:16:16.661Z,34.85
2023-03-04T03:19:08.725Z,34.08
2023-03-04T03:22:00.866Z,35.75
2023-03-04T03:24:53.036Z,34.95
2023-03-04T03:27:44.521Z,35.05
2023-03-04T03:30:37.538Z,35.98
2023-03-04T03:33:30.274Z,34.98
2023-03-04T03:36:21.743Z,37.25
2023-03-04T03:39:13.200Z,36.90
2023-03-04T03:42:04.590Z,35.75
2023-03-04T03:44:56.835Z,40.20
2023-03-04T03:47:51.273Z,37.33
2023-03-04T03:50:42.633Z,34.98
2023-03-04T03:53:34.239Z,41.73
2023-03-04T03:56:25.448Z,38.75
2023-03-04T03:59:20.963Z,38.10
2023-03-04T04:05:04.447Z,35.08
2023-03-04T04:07:55.643Z,36.70
2023-03-04T04:10:47.378Z,36.80
2023-03-04T04:13:39.372Z,36.15
2023-03-04T04:16:34.978Z,38.38
2023-03-04T04:19:27.928Z,35.48
2023-03-04T04:22:21.746Z,32.55
2023-03-04T04:25:13.381Z,36.30
2023-03-04T04:28:04.989Z,34.10
2023-03-04T04:30:56.329Z,38.23
2023-03-04T04:33:48.090Z,37.88
2023-03-04T04:36:39.575Z,36.95
2023-03-04T04:39:31.080Z,36.70
2023-03-04T04:42:22.188Z,37.30
2023-03-04T04:45:16.528Z,38.85
2023-03-04T04:48:11.777Z,38.13
2023-03-04T04:51:03.456Z,37.58
2023-03-04T04:53:55.366Z,39.10
2023-03-04T04:56:47.208Z,41.18
2023-03-04T04:59:38.612Z,37.03
2023-03-04T05:02:30.530Z,39.48
2023-03-04T05:05:31.777Z,37.93
2023-03-04T05:08:23.311Z,35.78
2023-03-04T05:11:14.867Z,36.55
2023-03-04T05:14:07.846Z,37.93
2023-03-04T05:16:59.468Z,43.38
2023-03-04T05:19:50.998Z,40.28
2023-03-04T05:22:42.651Z,38.67
2023-03-04T05:25:34.004Z,35.85
2023-03-04T05:31:07.660Z,40.25
2023-03-04T05:33:59.347Z,39.10
2023-03-04T05:36:50.799Z,40.17
2023-03-04T05:39:42.213Z,42.15
2023-03-04T05:45:15.134Z,39.67
2023-03-04T05:48:07.584Z,41.73
2023-03-04T05:51:00.129Z,39.03
2023-03-04T05:53:51.775Z,40.17
2023-03-04T05:56:43.333Z,41.75
2023-03-04T05:59:34.791Z,42.88
2023-03-04T06:02:26.392Z,44.08
2023-03-04T06:05:18.749Z,40.83
2023-03-04T06:08:10.451Z,43.58
2023-03-04T06:11:05.793Z,39.67
2023-03-04T06:13:57.537Z,42.55
2023-03-04T06:16:48.953Z,42.62
2023-03-04T06:19:42.024Z,43.87
2023-03-04T06:22:33.767Z,42.53
2023-03-04T06:25:25.543Z,44.90
2023-03-04T06:28:28.346Z,46.42
2023-03-04T06:31:37.956Z,45.45
2023-03-04T06:35:04.542Z,44.70
2023-03-04T06:37:55.588Z,45.45
2023-03-04T06:40:52.055Z,43.78
2023-03-04T06:43:44.099Z,44.15
2023-03-04T06:46:37.537Z,44.60
2023-03-04T06:49:28.917Z,48.85
2023-03-04T06:52:20.963Z,42.53
2023-03-04T06:55:14.052Z,46.33
2023-03-04T06:58:05.804Z,46.88
2023-03-04T07:00:57.411Z,49.93
2023-03-04T07:04:09.258Z,44.88
2023-03-04T07:07:01.123Z,45.23
2023-03-04T07:09:52.618Z,46.13
2023-03-04T07:15:28.595Z,50.70
2023-03-04T07:18:20.631Z,46.68
2023-03-04T07:24:08.323Z,47.10
2023-03-04T07:27:00.840Z,43.75
2023-03-04T07:29:52.299Z,45.98
2023-03-04T07:32:43.828Z,48.35
2023-03-04T07:35:35.617Z,44.30
2023-03-04T07:38:26.946Z,44.10
2023-03-04T07:41:20.059Z,46.23
2023-03-04T07:44:16.220Z,47.65
2023-03-04T07:47:09.437Z,43.75
2023-03-04T07:50:01.004Z,45.40
2023-03-04T07:52:52.759Z,48.65
2023-03-04T07:55:54.030Z,49.10
2023-03-04T07:58:57.807Z,47.08
2023-03-04T08:01:49.676Z,47.30
2023-03-04T08:07:55.764Z,46.37
2023-03-04T08:10:47.696Z,52.23
2023-03-04T08:13:39.332Z,45.63
2023-03-04T08:16:31.023Z,47.83
2023-03-04T08:19:24.403Z,49.33
2023-03-04T08:22:27.245Z,49.60
2023-03-04T08:25:18.996Z,46.77
2023-03-04T08:28:13.102Z,55.12
2023-03-04T08:31:05.752Z,50.12
2023-03-04T08:34:05.310Z,49.23
2023-03-04T08:36:56.757Z,49.42
2023-03-04T08:39:51.141Z,44.48
2023-03-04T08:42:50.019Z,50.60
2023-03-04T08:45:43.687Z,50.88
2023-03-04T08:48:35.209Z,46.83
2023-03-04T08:51:26.791Z,46.90
2023-03-04T08:54:18.735Z,46.73
2023-03-04T08:57:15.025Z,51.73
2023-03-04T09:00:07.748Z,51.53
2023-03-04T09:02:58.816Z,51.05
2023-03-04T09:05:52.173Z,52.13
2023-03-04T09:09:02.743Z,50.65
2023-03-04T09:11:55.419Z,55.08
2023-03-04T09:14:51.236Z,53.83
2023-03-04T09:17:40.528Z,49.25
2023-03-04T09:20:32.092Z,51.55
2023-03-04T09:23:23.402Z,48.85
2023-03-04T09:26:22.214Z,51.25
2023-03-04T09:29:13.815Z,53.80
2023-03-04T09:32:09.952Z,50.88
2023-03-04T09:35:01.635Z,54.48
2023-03-04T09:37:53.911Z,56.80
2023-03-04T09:40:48.190Z,54.42
2023-03-04T09:43:44.573Z,50.23
2023-03-04T09:46:50.587Z,53.63
2023-03-04T09:52:56.165Z,51.48
2023-03-04T09:55:49.986Z,51.20
2023-03-04T09:58:48.520Z,49.20
2023-03-04T10:04:36.235Z,50.10
2023-03-04T10:07:34.611Z,52.73
2023-03-04T10:10:29.350Z,55.48
2023-03-04T10:13:24.726Z,54.98
2023-03-04T10:16:19.231Z,53.15
2023-03-04T10:19:22.998Z,52.60
2023-03-04T10:22:20.921Z,50.90
2023-03-04T10:25:20.985Z,49.50
2023-03-04T10:28:16.307Z,50.35
2023-03-04T10:31:13.103Z,53.15
2023-03-04T10:34:05.276Z,51.73
2023-03-04T10:37:04.075Z,57.55
2023-03-04T10:39:55.597Z,55.75
2023-03-04T10:42:48.426Z,52.13
2023-03-04T10:45:42.534Z,52.70
2023-03-04T10:48:34.670Z,55.78
2023-03-04T10:51:29.850Z,54.35
2023-03-04T10:54:30.031Z,54.85
2023-03-04T11:00:04.519Z,52.85
2023-03-04T11:02:57.995Z,52.83
2023-03-04T11:05:54.516Z,53.48
2023-03-04T11:08:55.740Z,53.30
2023-03-04T11:11:47.703Z,54.05
2023-03-04T11:14:43.445Z,52.48
2023-03-04T11:17:45.967Z,49.85
2023-03-04T11:20:40.982Z,53.50
2023-03-04T11:23:37.780Z,51.37
2023-03-04T11:26:42.320Z,48.85
2023-03-04T11:29:31.716Z,50.75
2023-03-04T11:32:25.913Z,52.10
2023-03-04T11:38:15.338Z,47.85
2023-03-04T11:41:14.517Z,46.75
2023-03-04T11:44:10.121Z,49.95
2023-03-04T11:47:23.759Z,48.63
2023-03-04T11:50:48.417Z,45.38
2023-03-04T11:53:48.425Z,43.48
2023-03-04T11:56:45.899Z,45.33
2023-03-04T11:59:51.936Z,42.60
2023-03-04T12:02:57.487Z,46.80
2023-03-04T12:05:59.588Z,43.87
2023-03-04T12:09:00.141Z,44.23
2023-03-04T12:11:56.745Z,42.75
2023-03-04T12:14:51.247Z,42.10
2023-03-04T12:18:26.496Z,44.15
2023-03-04T12:21:20.505Z,39.05
2023-03-04T12:24:43.598Z,39.25
2023-03-04T12:31:47.151Z,39.50
2023-03-04T12:35:03.684Z,38.85
2023-03-04T12:38:27.538Z,38.98
2023-03-04T12:41:28.473Z,38.40
2023-03-04T12:44:21.920Z,38.50
2023-03-04T12:47:22.621Z,39.75
2023-03-04T12:50:35.648Z,41.00
2023-03-04T12:53:31.429Z,39.53
2023-03-04T12:56:27.687Z,37.15
2023-03-04T12:59:39.654Z,39.70
2023-03-04T13:06:04.809Z,39.45
2023-03-04T13:09:02.383Z,38.53
2023-03-04T13:11:58.551Z,43.03
2023-03-04T13:15:20.563Z,40.28
2023-03-04T13:18:35.256Z,41.68
2023-03-04T13:24:39.462Z,42.93
2023-03-04T13:28:19.364Z,44.00
2023-03-04T13:31:28.057Z,42.33
2023-03-04T13:34:46.016Z,45.23
2023-03-04T13:37:39.215Z,41.00
2023-03-04T13:40:42.889Z,41.48
2023-03-04T13:43:42.392Z,45.73
2023-03-04T13:46:43.665Z,42.88
2023-03-04T13:49:35.291Z,47.03
2023-03-04T13:52:44.747Z,43.58
2023-03-04T13:56:24.591Z,42.98
2023-03-04T13:59:30.192Z,42.43
2023-03-04T14:02:22.998Z,44.27
2023-03-04T14:05:14.903Z,42.83
2023-03-04T14:08:22.133Z,46.02
2023-03-04T14:11:17.467Z,40.30
2023-03-04T14:14:11.844Z,41.33
2023-03-04T14:17:05.900Z,44.15
2023-03-04T14:19:58.216Z,42.45
2023-03-04T14:22:49.621Z,42.73
2023-03-04T14:25:41.489Z,44.27
2023-03-04T14:28:33.004Z,44.73
2023-03-04T14:31:27.715Z,39.95
2023-03-04T14:34:24.549Z,41.10
2023-03-04T14:40:25.309Z,44.08
2023-03-04T14:43:20.188Z,41.28
2023-03-04T14:46:14.856Z,40.33
2023-03-04T14:49:12.444Z,43.95
2023-03-04T14:52:04.537Z,40.30
2023-03-04T14:55:06.113Z,37.55
2023-03-04T14:58:09.176Z,36.95
2023-03-04T15:01:17.647Z,41.55
2023-03-04T15:04:12.387Z,37.35
2023-03-04T15:07:05.638Z,39.27
2023-03-04T15:09:57.954Z,40.65
2023-03-04T15:15:49.325Z,36.60
2023-03-04T15:18:41.930Z,39.00
2023-03-04T15:24:51.413Z,39.60
2023-03-04T15:27:43.222Z,39.75
2023-03-04T15:30:36.536Z,38.75
2023-03-04T15:33:34.259Z,39.10
2023-03-04T15:36:26.233Z,39.65
2023-03-04T15:39:19.525Z,36.65
2023-03-04T15:44:58.652Z,35.88
2023-03-04T15:47:50.362Z,37.60
2023-03-04T15:50:45.010Z,37.67
2023-03-04T15:53:39.689Z,38.42
2023-03-04T15:56:33.332Z,34.20
2023-03-04T15:59:24.951Z,36.23
2023-03-04T16:02:19.509Z,36.48
2023-03-04T16:05:12.136Z,37.55
2023-03-04T16:08:03.787Z,33.33
2023-03-04T16:10:55.797Z,33.98
2023-03-04T16:13:47.760Z,34.33
2023-03-04T16:16:39.468Z,31.30
2023-03-04T16:19:31.180Z,34.43
2023-03-04T16:25:11.799Z,36.30
2023-03-04T16:28:04.520Z,36.00
2023-03-04T16:30:57.637Z,35.10
2023-03-04T16:34:26.891Z,31.90
2023-03-04T16:40:20.131Z,33.55
2023-03-04T16:43:01.371Z,36.68
2023-03-04T16:45:52.874Z,32.53
2023-03-04T16:48:45.193Z,34.55
2023-03-04T16:51:39.873Z,33.83
2023-03-04T16:57:23.548Z,32.83
2023-03-04T17:00:18.389Z,36.38
2023-03-04T17:03:13.923Z,36.42
2023-03-04T17:06:15.572Z,35.43
2023-03-04T17:09:09.142Z,40.25
2023-03-04T17:12:03.780Z,37.13
2023-03-04T17:14:55.556Z,34.27
2023-03-04T17:17:46.843Z,33.67
2023-03-04T17:20:38.139Z,34.88
2023-03-04T17:23:38.708Z,35.30
2023-03-04T17:26:30.886Z,34.50
2023-03-04T17:29:22.414Z,37.25
2023-03-04T17:32:14.107Z,33.75
2023-03-04T17:35:07.248Z,34.83
2023-03-04T17:37:58.617Z,39.40
2023-03-04T17:40:49.962Z,32.17
2023-03-04T17:43:44.522Z,35.80
2023-03-04T17:46:36.523Z,35.70
2023-03-04T17:49:28.246Z,35.13
2023-03-04T17:52:20.160Z,36.65
2023-03-04T17:55:12.674Z,36.08
2023-03-04T17:58:04.043Z,40.73
2023-03-04T18:00:58.143Z,39.67
2023-03-04T18:03:50.478Z,39.03
2023-03-04T18:06:42.667Z,42.33
2023-03-04T18:09:34.423Z,37.90
2023-03-04T18:12:26.009Z,38.55
2023-03-04T18:15:18.020Z,41.80
2023-03-04T18:18:11.250Z,39.53
2023-03-04T18:21:04.407Z,37.45
2023-03-04T18:23:56.502Z,40.65
2023-03-04T18:26:50.799Z,40.45
2023-03-04T18:29:42.224Z,38.80
2023-03-04T18:32:49.409Z,39.10
2023-03-04T18:35:27.193Z,39.00
2023-03-04T18:38:18.365Z,35.35
2023-03-04T18:41:12.455Z,38.95
2023-03-04T18:44:05.163Z,36.75
2023-03-04T18:46:58.193Z,38.85
2023-03-04T18:49:50.567Z,35.73
2023-03-04T18:52:42.282Z,39.10
2023-03-04T18:55:33.899Z,39.13
2023-03-04T18:58:25.601Z,38.83
2023-03-04T19:01:21.687Z,36.75
2023-03-04T19:04:22.403Z,37.73
2023-03-04T19:07:13.761Z,38.45
2023-03-04T19:10:05.489Z,38.48
2023-03-04T19:12:59.435Z,39.83
2023-03-04T19:15:52.446Z,40.92
2023-03-04T19:18:44.365Z,37.23
2023-03-04T19:21:39.243Z,41.08
2023-03-04T19:24:31.050Z,40.92
2023-03-04T19:27:22.659Z,40.95
2023-03-04T19:30:15.710Z,38.48
2023-03-04T19:33:07.530Z,44.13
2023-03-04T19:35:59.031Z,41.77
2023-03-04T19:38:50.395Z,41.70
2023-03-04T19:41:42.024Z,40.30
2023-03-04T19:44:33.463Z,42.95
2023-03-04T19:47:24.741Z,39.92
2023-03-04T19:50:32.250Z,41.28
2023-03-04T19:53:20.178Z,40.92
2023-03-04T19:56:12.234Z,46.08
2023-03-04T19:59:03.842Z,42.13
2023-03-04T20:01:55.115Z,42.27
2023-03-04T20:04:46.364Z,40.67
2023-03-04T20:07:38.038Z,42.55
2023-03-04T20:10:31.131Z,44.93
2023-03-04T20:13:22.547Z,41.77
2023-03-04T20:16:15.163Z,43.58
2023-03-04T20:19:06.550Z,40.30
2023-03-04T20:21:57.962Z,40.08
2023-03-04T20:24:49.263Z,41.00
2023-03-04T20:27:41.758Z,42.73
2023-03-04T20:30:33.223Z,40.92
2023-03-04T20:33:25.471Z,42.70
2023-03-04T20:36:19.783Z,40.85
2023-03-04T20:39:27.091Z,43.75
2023-03-04T20:42:06.783Z,40.17
2023-03-04T20:44:58.244Z,43.65
2023-03-04T20:47:50.105Z,42.98
2023-03-04T20:53:34.825Z,42.90
2023-03-04T20:56:26.981Z,46.65
2023-03-04T20:59:19.377Z,43.02
2023-03-04T21:02:13.958Z,45.05
2023-03-04T21:05:05.978Z,43.98
2023-03-04T21:07:57.752Z,39.98
2023-03-04T21:10:51.010Z,46.18
2023-03-04T21:13:44.998Z,41.20
2023-03-04T21:16:36.579Z,41.55
2023-03-04T21:19:30.324Z,41.68
2023-03-04T21:22:39.490Z,45.60
2023-03-04T21:25:30.916Z,42.33
2023-03-04T21:28:22.643Z,40.20
2023-03-04T21:31:18.488Z,41.10
2023-03-04T21:34:14.175Z,43.78
2023-03-04T21:37:06.257Z,39.75
2023-03-04T21:39:58.452Z,38.05
2023-03-04T21:42:58.059Z,40.75
2023-03-04T21:45:50.464Z,40.08
2023-03-04T21:48:43.385Z,42.60
2023-03-04T21:51:35.075Z,41.20
2023-03-04T21:54:26.460Z,39.45
2023-03-04T21:57:17.428Z,39.38
2023-03-04T22:00:12.039Z,45.25
2023-03-04T22:03:03.649Z,43.85
2023-03-04T22:05:55.201Z,40.33
2023-03-04T22:08:46.806Z,40.10
2023-03-04T22:11:38.528Z,38.92
2023-03-04T22:28:28.043Z,42.60
2023-03-04T22:34:29.688Z,39.45
2023-03-04T22:37:21.072Z,44.20
2023-03-04T22:40:16.419Z,41.30
2023-03-04T22:43:07.617Z,43.15
2023-03-04T22:46:00.330Z,42.05
2023-03-04T22:48:53.079Z,41.20
2023-03-04T22:51:46.088Z,42.50
2023-03-04T22:54:42.966Z,41.05
2023-03-04T22:57:35.231Z,42.20
2023-03-04T23:00:28.934Z,43.08
2023-03-04T23:03:20.721Z,42.10
2023-03-04T23:06:14.445Z,38.20
2023-03-04T23:09:08.688Z,38.90
2023-03-04T23:12:02.436Z,40.43
2023-03-04T23:14:54.492Z,38.88
2023-03-04T23:17:48.995Z,42.70
2023-03-04T23:20:42.063Z,42.03
2023-03-04T23:23:33.733Z,42.88
2023-03-04T23:26:27.270Z,44.83
2023-03-04T23:29:18.482Z,40.40
2023-03-04T23:32:10.418Z,41.37
2023-03-04T23:35:01.972Z,43.13
2023-03-04T23:40:58.571Z,42.58
2023-03-04T23:43:51.397Z,41.30
2023-03-04T23:46:42.884Z,38.58
2023-03-04T23:49:34.379Z,39.10
2023-03-04T23:52:26.220Z,40.60
2023-03-04T23:55:19.257Z,38.33
2023-03-04T23:58:35.809Z,40.63
